createdAt,value
2022-08-27T00:02:06.770Z,1.50
2022-08-27T00:04:36.148Z,1.85
2022-08-27T00:07:04.251Z,1.50
2022-08-27T00:09:32.036Z,1.30
2022-08-27T00:11:59.622Z,1.45
2022-08-27T00:14:28.668Z,1.40
2022-08-27T00:16:57.321Z,1.60
2022-08-27T00:19:25.169Z,1.50
2022-08-27T00:21:52.291Z,1.60
2022-08-27T00:24:19.568Z,1.52
2022-08-27T00:26:46.841Z,1.60
2022-08-27T00:29:14.080Z,1.80
2022-08-27T00:31:41.297Z,1.95
2022-08-27T00:34:09.119Z,1.40
2022-08-27T00:36:41.406Z,1.35
2022-08-27T00:39:08.595Z,1.88
2022-08-27T00:41:35.988Z,1.30
2022-08-27T00:44:03.430Z,1.50
2022-08-27T00:46:46.938Z,2.53
2022-08-27T00:49:20.198Z,1.90
2022-08-27T00:52:04.661Z,1.67
2022-08-27T00:54:32.535Z,1.90
2022-08-27T00:57:01.174Z,1.52
2022-08-27T00:59:31.109Z,2.00
2022-08-27T01:02:18.137Z,2.10
2022-08-27T01:05:11.020Z,1.73
2022-08-27T01:07:43.886Z,1.80
2022-08-27T01:10:18.446Z,1.85
2022-08-27T01:12:53.540Z,1.63
2022-08-27T01:15:27.935Z,2.13
2022-08-27T01:17:56.636Z,1.88
2022-08-27T01:20:53.067Z,1.50
2022-08-27T01:23:50.923Z,1.73
2022-08-27T01:26:18.765Z,1.50
2022-08-27T01:28:46.105Z,1.60
2022-08-27T01:31:13.913Z,2.42
2022-08-27T01:33:41.423Z,1.83
2022-08-27T01:36:08.608Z,1.92
2022-08-27T01:38:35.717Z,2.08
2022-08-27T01:41:03.778Z,1.73
2022-08-27T01:43:31.783Z,1.95
2022-08-27T01:45:59.392Z,1.58
2022-08-27T01:48:26.516Z,1.85
2022-08-27T01:50:53.679Z,1.80
2022-08-27T01:53:25.720Z,2.10
2022-08-27T01:55:54.575Z,1.65
2022-08-27T01:58:26.704Z,1.83
2022-08-27T02:00:59.469Z,2.05
2022-08-27T02:03:27.322Z,2.35
2022-08-27T02:05:54.757Z,1.95
2022-08-27T02:08:22.138Z,2.00
2022-08-27T02:10:50.119Z,2.17
2022-08-27T02:13:18.780Z,2.10
2022-08-27T02:15:45.978Z,1.80
2022-08-27T02:18:15.035Z,2.33
2022-08-27T02:20:44.993Z,2.13
2022-08-27T02:23:16.277Z,2.20
2022-08-27T02:25:44.807Z,2.30
2022-08-27T02:28:12.422Z,2.30
2022-08-27T02:30:40.009Z,2.33
2022-08-27T02:33:10.174Z,2.75
2022-08-27T02:35:44.386Z,2.38
2022-08-27T02:38:13.287Z,2.42
2022-08-27T02:40:41.207Z,2.10
2022-08-27T02:43:08.969Z,2.40
2022-08-27T02:45:37.550Z,2.53
2022-08-27T02:48:08.022Z,2.40
2022-08-27T02:50:36.218Z,2.53
2022-08-27T02:53:06.003Z,2.42
2022-08-27T02:55:33.814Z,2.17
2022-08-27T02:58:01.395Z,2.45
2022-08-27T03:00:29.447Z,2.58
2022-08-27T03:02:57.684Z,2.97
2022-08-27T03:05:25.535Z,2.00
2022-08-27T03:07:52.721Z,2.15
2022-08-27T03:10:21.152Z,2.05
2022-08-27T03:12:48.697Z,2.40
2022-08-27T03:15:17.983Z,2.30
2022-08-27T03:18:04.133Z,2.13
2022-08-27T03:20:32.669Z,2.15
2022-08-27T03:23:00.698Z,2.13
2022-08-27T03:25:27.979Z,2.15
2022-08-27T03:27:55.300Z,2.28
2022-08-27T03:30:24.041Z,2.17
2022-08-27T03:32:51.837Z,2.70
2022-08-27T03:35:20.673Z,2.08
2022-08-27T03:37:48.761Z,2.20
2022-08-27T03:40:16.667Z,2.40
2022-08-27T03:42:43.958Z,2.55
2022-08-27T03:45:12.270Z,2.60
2022-08-27T03:47:40.387Z,2.25
2022-08-27T03:50:08.783Z,2.58
2022-08-27T03:52:37.082Z,2.50
2022-08-27T03:55:07.570Z,2.50
2022-08-27T03:57:34.705Z,2.67
2022-08-27T04:00:01.927Z,2.45
2022-08-27T04:02:29.339Z,2.65
2022-08-27T04:04:57.827Z,2.35
2022-08-27T04:07:25.696Z,2.90
2022-08-27T04:09:52.852Z,2.60
2022-08-27T04:12:20.000Z,2.97
2022-08-27T04:14:50.669Z,3.38
2022-08-27T04:17:17.879Z,2.90
2022-08-27T04:19:45.513Z,2.67
2022-08-27T04:22:13.416Z,2.60
2022-08-27T04:24:41.501Z,2.55
2022-08-27T04:27:08.826Z,3.10
2022-08-27T04:29:35.970Z,2.90
2022-08-27T04:32:04.200Z,3.00
2022-08-27T04:34:31.691Z,2.75
2022-08-27T04:37:00.019Z,3.22
2022-08-27T04:39:30.353Z,2.63
2022-08-27T04:42:00.987Z,3.42
2022-08-27T04:44:32.916Z,3.13
2022-08-27T04:47:04.435Z,3.00
2022-08-27T04:49:34.038Z,3.53
2022-08-27T04:52:01.280Z,3.53
2022-08-27T04:54:32.419Z,3.47
2022-08-27T04:57:00.655Z,3.55
2022-08-27T04:59:27.653Z,3.42
2022-08-27T05:01:54.727Z,3.25
2022-08-27T05:04:22.120Z,2.83
2022-08-27T05:06:50.733Z,2.78
2022-08-27T05:09:21.989Z,3.50
2022-08-27T05:11:54.080Z,3.67
2022-08-27T05:14:22.315Z,3.33
2022-08-27T05:16:49.518Z,3.63
2022-08-27T05:19:16.630Z,3.83
2022-08-27T05:21:50.430Z,3.50
2022-08-27T05:24:18.846Z,3.72
2022-08-27T05:26:46.502Z,3.50
2022-08-27T05:29:14.390Z,3.90
2022-08-27T05:31:42.302Z,4.10
2022-08-27T05:34:14.123Z,3.45
2022-08-27T05:36:51.977Z,3.15
2022-08-27T05:39:19.411Z,3.08
2022-08-27T05:41:46.709Z,3.83
2022-08-27T05:47:05.182Z,3.30
2022-08-27T05:49:32.737Z,3.92
2022-08-27T05:52:00.041Z,3.10
2022-08-27T05:54:27.587Z,3.17
2022-08-27T05:56:54.859Z,3.65
2022-08-27T05:59:40.733Z,2.90
2022-08-27T06:02:08.376Z,2.90
2022-08-27T06:04:36.512Z,3.67
2022-08-27T06:07:04.593Z,3.42
2022-08-27T06:09:31.853Z,3.20
2022-08-27T06:12:00.478Z,3.70
2022-08-27T06:14:28.437Z,3.13
2022-08-27T06:16:56.366Z,3.55
2022-08-27T06:19:24.149Z,3.45
2022-08-27T06:22:00.222Z,3.60
2022-08-27T06:24:29.596Z,3.40
2022-08-27T06:26:58.059Z,3.80
2022-08-27T06:29:25.691Z,3.08
2022-08-27T06:31:55.141Z,3.80
2022-08-27T06:34:22.750Z,3.53
2022-08-27T06:36:50.264Z,2.97
2022-08-27T06:39:18.125Z,3.38
2022-08-27T06:41:45.601Z,3.63
2022-08-27T06:44:14.340Z,3.83
2022-08-27T06:46:43.268Z,3.40
2022-08-27T06:49:12.608Z,3.13
2022-08-27T06:51:43.328Z,3.20
2022-08-27T06:54:13.218Z,3.58
2022-08-27T06:56:42.487Z,3.20
2022-08-27T06:59:18.899Z,2.92
2022-08-27T07:01:49.770Z,3.00
2022-08-27T07:04:32.113Z,2.83
2022-08-27T07:07:04.964Z,3.00
2022-08-27T07:12:15.234Z,3.38
2022-08-27T07:14:42.998Z,2.90
2022-08-27T07:17:16.435Z,2.75
2022-08-27T07:19:45.301Z,2.97
2022-08-27T07:22:13.570Z,2.85
2022-08-27T07:24:44.065Z,2.58
2022-08-27T07:27:12.293Z,2.60
2022-08-27T07:29:40.899Z,2.30
2022-08-27T07:32:08.152Z,2.40
2022-08-27T07:34:38.257Z,2.42
2022-08-27T07:37:05.468Z,2.35
2022-08-27T07:39:32.648Z,2.75
2022-08-27T07:42:18.781Z,2.45
2022-08-27T07:44:45.944Z,2.50
2022-08-27T07:47:13.685Z,2.60
2022-08-27T07:49:41.015Z,2.58
2022-08-27T07:52:08.126Z,2.72
2022-08-27T07:54:35.227Z,2.42
2022-08-27T07:57:02.340Z,2.40
2022-08-27T07:59:29.550Z,2.53
2022-08-27T08:01:58.065Z,2.40
2022-08-27T08:04:26.638Z,2.40
2022-08-27T08:06:55.722Z,2.42
2022-08-27T08:09:25.041Z,2.30
2022-08-27T08:11:52.658Z,1.90
2022-08-27T08:14:20.652Z,2.30
2022-08-27T08:16:52.575Z,1.85
2022-08-27T08:19:20.325Z,2.45
2022-08-27T08:21:47.857Z,2.47
2022-08-27T08:24:14.948Z,2.25
2022-08-27T08:26:42.326Z,2.20
2022-08-27T08:29:16.668Z,2.22
2022-08-27T08:31:50.212Z,2.50
2022-08-27T08:34:19.580Z,2.45
2022-08-27T08:36:53.823Z,2.22
2022-08-27T08:39:22.059Z,2.45
2022-08-27T08:42:03.007Z,2.70
2022-08-27T08:44:37.273Z,2.95
2022-08-27T08:47:33.197Z,2.45
2022-08-27T08:50:21.403Z,2.00
2022-08-27T08:53:13.883Z,2.35
2022-08-27T08:55:41.484Z,2.40
2022-08-27T08:58:38.287Z,2.60
2022-08-27T09:01:09.621Z,2.22
2022-08-27T09:03:49.470Z,2.50
2022-08-27T09:07:02.682Z,2.30
2022-08-27T09:10:34.584Z,2.03
2022-08-27T09:13:05.543Z,2.38
2022-08-27T09:15:36.488Z,2.03
2022-08-27T09:18:14.171Z,2.40
2022-08-27T09:20:50.499Z,2.30
2022-08-27T09:23:38.488Z,2.67
2022-08-27T09:26:15.950Z,2.15
2022-08-27T09:29:01.811Z,2.22
2022-08-27T09:31:29.747Z,2.38
2022-08-27T09:33:57.330Z,2.50
2022-08-27T09:36:25.979Z,2.40
2022-08-27T09:39:02.277Z,2.50
2022-08-27T09:41:47.725Z,2.88
2022-08-27T09:44:21.389Z,2.70
2022-08-27T09:47:02.265Z,2.28
2022-08-27T09:49:31.244Z,1.85
2022-08-27T09:51:59.125Z,1.80
2022-08-27T09:54:47.268Z,1.50
2022-08-27T09:57:36.308Z,2.13
2022-08-27T10:00:08.923Z,1.73
2022-08-27T10:02:36.051Z,2.15
2022-08-27T10:05:26.877Z,2.00
2022-08-27T10:08:04.642Z,2.03
2022-08-27T10:10:58.395Z,1.67
2022-08-27T10:13:48.090Z,1.50
2022-08-27T10:16:29.500Z,1.75
2022-08-27T10:19:29.919Z,1.55
2022-08-27T10:22:35.979Z,1.67
2022-08-27T10:25:35.737Z,1.63
2022-08-27T10:28:13.917Z,1.52
2022-08-27T10:30:55.785Z,1.40
2022-08-27T10:33:31.835Z,1.45
2022-08-27T10:36:30.129Z,1.63
2022-08-27T10:39:11.401Z,1.40
2022-08-27T10:41:51.403Z,1.42
2022-08-27T10:44:50.369Z,1.52
2022-08-27T10:47:32.384Z,1.40
2022-08-27T10:50:11.687Z,1.70
2022-08-27T10:52:47.904Z,1.58
2022-08-27T10:55:40.457Z,1.45
2022-08-27T10:58:16.632Z,1.33
2022-08-27T11:01:02.963Z,1.38
2022-08-27T11:03:48.252Z,1.45
2022-08-27T11:06:50.426Z,1.73
2022-08-27T11:09:35.263Z,1.58
2022-08-27T11:12:14.248Z,1.40
2022-08-27T11:15:04.969Z,1.58
2022-08-27T11:18:09.043Z,1.58
2022-08-27T11:21:12.681Z,1.70
2022-08-27T11:24:03.119Z,1.38
2022-08-27T11:26:33.742Z,1.75
2022-08-27T11:29:29.684Z,1.35
2022-08-27T11:32:11.643Z,1.30
2022-08-27T11:34:47.969Z,1.25
2022-08-27T11:37:59.950Z,1.50
2022-08-27T11:40:50.746Z,1.55
2022-08-27T11:43:23.849Z,1.17
2022-08-27T11:46:04.635Z,1.40
2022-08-27T11:48:44.153Z,1.05
2022-08-27T11:51:19.015Z,1.02
2022-08-27T11:54:08.987Z,1.10
2022-08-27T11:56:43.395Z,1.30
2022-08-27T11:59:33.414Z,1.10
2022-08-27T12:02:25.938Z,1.10
2022-08-27T12:05:07.099Z,1.15
2022-08-27T12:07:40.002Z,1.38
2022-08-27T12:10:47.537Z,1.17
2022-08-27T12:13:43.847Z,1.20
2022-08-27T12:16:42.159Z,1.13
2022-08-27T12:19:43.073Z,1.00
2022-08-27T12:22:55.623Z,1.10
2022-08-27T12:25:23.993Z,1.30
2022-08-27T12:28:05.278Z,1.20
2022-08-27T12:30:49.475Z,1.35
2022-08-27T12:33:33.070Z,1.17
2022-08-27T12:36:13.625Z,0.95
2022-08-27T12:38:50.474Z,1.20
2022-08-27T12:41:44.465Z,1.10
2022-08-27T12:44:29.279Z,1.52
2022-08-27T12:47:03.423Z,1.08
2022-08-27T12:49:44.928Z,1.08
2022-08-27T12:52:34.999Z,0.90
2022-08-27T12:55:28.765Z,1.00
2022-08-27T12:58:55.248Z,0.90
2022-08-27T13:01:33.961Z,1.20
2022-08-27T13:04:01.755Z,0.93
2022-08-27T13:06:36.903Z,1.20
2022-08-27T13:09:08.771Z,1.00
2022-08-27T13:11:47.421Z,1.08
2022-08-27T13:14:21.133Z,0.98
2022-08-27T13:17:14.833Z,1.00
2022-08-27T13:19:51.350Z,1.20
2022-08-27T13:22:31.002Z,1.00
2022-08-27T13:25:00.053Z,1.10
2022-08-27T13:27:32.658Z,1.13
2022-08-27T13:30:35.882Z,0.98
2022-08-27T13:33:05.922Z,1.20
2022-08-27T13:35:37.662Z,0.90
2022-08-27T13:38:05.637Z,0.98
2022-08-27T13:40:38.817Z,0.82
2022-08-27T13:43:12.498Z,0.82
2022-08-27T13:45:41.825Z,1.17
2022-08-27T13:48:12.724Z,1.08
2022-08-27T13:50:56.417Z,0.90
2022-08-27T13:53:50.312Z,0.98
2022-08-27T13:56:36.503Z,1.30
2022-08-27T13:59:19.494Z,0.90
2022-08-27T14:02:00.583Z,1.00
2022-08-27T14:04:40.469Z,1.20
2022-08-27T14:07:34.502Z,1.05
2022-08-27T14:10:26.163Z,1.23
2022-08-27T14:13:22.307Z,1.15
2022-08-27T14:15:54.261Z,1.10
2022-08-27T14:19:04.049Z,1.38
2022-08-27T14:21:33.077Z,1.00
2022-08-27T14:24:00.160Z,1.08
2022-08-27T14:26:27.702Z,1.00
2022-08-27T14:28:55.793Z,1.02
2022-08-27T14:31:23.785Z,1.00
2022-08-27T14:33:54.579Z,1.20
2022-08-27T14:36:27.814Z,1.00
2022-08-27T14:38:59.138Z,1.02
2022-08-27T14:41:27.340Z,1.17
2022-08-27T14:43:54.345Z,1.10
2022-08-27T14:46:31.164Z,1.10
2022-08-27T14:49:00.711Z,0.93
2022-08-27T14:51:32.420Z,1.30
2022-08-27T14:53:59.441Z,1.90
2022-08-27T14:56:27.182Z,1.70
2022-08-27T14:58:55.869Z,1.25
2022-08-27T15:01:25.592Z,1.40
2022-08-27T15:03:54.745Z,1.35
2022-08-27T15:06:23.630Z,1.63
2022-08-27T15:08:51.871Z,1.33
2022-08-27T15:11:23.918Z,0.95
2022-08-27T15:13:56.159Z,1.10
2022-08-27T15:16:43.050Z,1.00
2022-08-27T15:19:13.638Z,1.30
2022-08-27T15:21:44.230Z,1.25
2022-08-27T15:24:30.359Z,1.20
2022-08-27T15:26:58.081Z,1.02
2022-08-27T15:29:26.864Z,1.30
2022-08-27T15:31:54.341Z,1.10
2022-08-27T15:34:21.560Z,1.27
2022-08-27T15:36:48.573Z,1.40
2022-08-27T15:39:17.499Z,1.23
2022-08-27T15:42:05.864Z,1.33
2022-08-27T15:44:32.252Z,1.00
2022-08-27T15:46:59.330Z,1.60
2022-08-27T15:49:26.404Z,1.00
2022-08-27T15:51:53.628Z,1.05
2022-08-27T15:54:21.370Z,1.20
2022-08-27T15:56:48.356Z,1.30
2022-08-27T15:59:16.835Z,1.15
2022-08-27T16:01:44.886Z,1.70
2022-08-27T16:04:12.612Z,1.35
2022-08-27T16:06:39.714Z,1.40
2022-08-27T16:09:06.849Z,1.10
2022-08-27T16:11:34.072Z,1.63
2022-08-27T16:14:01.461Z,1.30
2022-08-27T16:16:32.421Z,1.98
2022-08-27T16:19:03.151Z,1.27
2022-08-27T16:21:30.866Z,1.10
2022-08-27T16:23:57.915Z,1.20
2022-08-27T16:26:25.006Z,1.15
2022-08-27T16:28:52.061Z,1.10
2022-08-27T16:31:19.446Z,1.50
2022-08-27T16:33:46.970Z,2.08
2022-08-27T16:36:14.345Z,1.45
2022-08-27T16:38:41.929Z,1.83
2022-08-27T16:41:09.135Z,4.57
2022-08-27T16:43:36.411Z,2.00
2022-08-27T16:46:03.735Z,1.80
2022-08-27T16:48:49.458Z,1.40
2022-08-27T16:51:34.791Z,1.52
2022-08-27T16:54:07.113Z,1.75
2022-08-27T16:56:37.668Z,1.20
2022-08-27T16:59:05.834Z,1.50
2022-08-27T17:01:33.619Z,1.30
2022-08-27T17:04:16.120Z,1.52
2022-08-27T17:06:45.677Z,1.30
2022-08-27T17:09:13.340Z,1.75
2022-08-27T17:11:43.077Z,1.50
2022-08-27T17:14:12.242Z,1.38
2022-08-27T17:16:41.735Z,1.52
2022-08-27T17:19:11.049Z,1.92
2022-08-27T17:21:45.440Z,1.50
2022-08-27T17:24:13.444Z,1.98
2022-08-27T17:26:41.281Z,1.40
2022-08-27T17:29:08.472Z,1.48
2022-08-27T17:31:40.483Z,1.20
2022-08-27T17:34:12.280Z,1.40
2022-08-27T17:36:39.458Z,1.67
2022-08-27T17:39:06.771Z,1.65
2022-08-27T17:41:40.389Z,1.48
2022-08-27T17:44:33.174Z,1.42
2022-08-27T17:47:03.227Z,1.40
2022-08-27T17:49:31.284Z,1.50
2022-08-27T17:52:06.909Z,1.45
2022-08-27T17:54:44.629Z,1.02
2022-08-27T17:57:22.533Z,1.20
2022-08-27T17:59:50.926Z,1.50
2022-08-27T18:02:58.945Z,1.23
2022-08-27T18:05:26.220Z,1.48
2022-08-27T18:07:53.838Z,1.20
2022-08-27T18:10:26.179Z,1.60
2022-08-27T18:12:55.930Z,1.45
2022-08-27T18:15:33.893Z,1.65
2022-08-27T18:18:02.045Z,1.38
2022-08-27T18:20:31.451Z,2.00
2022-08-27T18:23:00.272Z,1.30
2022-08-27T18:25:35.815Z,1.58
2022-08-27T18:28:08.096Z,1.35
2022-08-27T18:30:36.073Z,1.30
2022-08-27T18:33:04.648Z,1.70
2022-08-27T18:35:33.927Z,1.65
2022-08-27T18:38:01.715Z,1.63
2022-08-27T18:40:36.927Z,1.38
2022-08-27T18:43:05.247Z,1.50
2022-08-27T18:45:34.660Z,1.63
2022-08-27T18:48:03.691Z,1.40
2022-08-27T18:50:30.753Z,1.40
2022-08-27T18:52:57.910Z,1.40
2022-08-27T18:55:28.137Z,1.15
2022-08-27T18:57:55.503Z,1.40
2022-08-27T19:00:23.016Z,1.45
2022-08-27T19:02:52.559Z,1.52
2022-08-27T19:05:25.322Z,1.55
2022-08-27T19:07:53.938Z,1.52
2022-08-27T19:10:21.544Z,1.30
2022-08-27T19:12:48.879Z,1.45
2022-08-27T19:15:16.832Z,1.30
2022-08-27T19:17:53.643Z,1.20
2022-08-27T19:20:21.040Z,2.17
2022-08-27T19:22:51.531Z,1.25
2022-08-27T19:25:18.684Z,1.20
2022-08-27T19:27:46.736Z,1.40
2022-08-27T19:30:15.637Z,1.67
2022-08-27T19:32:47.120Z,1.50
2022-08-27T19:35:19.509Z,1.90
2022-08-27T19:37:53.000Z,1.20
2022-08-27T19:40:22.444Z,1.50
2022-08-27T19:42:50.876Z,2.15
2022-08-27T19:45:23.732Z,1.60
2022-08-27T19:47:56.350Z,1.70
2022-08-27T19:50:24.385Z,1.80
2022-08-27T19:52:53.040Z,1.40
2022-08-27T19:55:21.285Z,1.83
2022-08-27T19:57:51.318Z,1.77
2022-08-27T20:00:27.647Z,1.60
2022-08-27T20:02:55.820Z,1.58
2022-08-27T20:05:23.509Z,2.00
2022-08-27T20:07:53.418Z,2.10
2022-08-27T20:10:36.267Z,1.98
2022-08-27T20:13:06.339Z,1.70
2022-08-27T20:15:34.770Z,1.33
2022-08-27T20:18:03.000Z,1.73
2022-08-27T20:20:31.399Z,1.45
2022-08-27T20:23:00.056Z,2.10
2022-08-27T20:25:27.196Z,1.73
2022-08-27T20:27:59.001Z,1.40
2022-08-27T20:30:31.373Z,2.38
2022-08-27T20:33:00.158Z,1.70
2022-08-27T20:35:27.954Z,1.75
2022-08-27T20:37:57.748Z,1.40
2022-08-27T20:40:31.610Z,1.77
2022-08-27T20:43:01.912Z,2.05
2022-08-27T20:45:31.658Z,2.40
2022-08-27T20:48:04.294Z,1.83
2022-08-27T20:50:31.491Z,1.77
2022-08-27T20:52:58.661Z,1.75
2022-08-27T20:55:25.808Z,1.70
2022-08-27T20:58:11.668Z,1.65
2022-08-27T21:00:42.198Z,2.08
2022-08-27T21:03:12.759Z,2.28
2022-08-27T21:05:42.496Z,1.70
2022-08-27T21:08:10.520Z,1.63
2022-08-27T21:10:58.035Z,1.55
2022-08-27T21:13:27.600Z,1.30
2022-08-27T21:15:56.471Z,1.80
2022-08-27T21:18:29.823Z,1.38
2022-08-27T21:21:02.597Z,1.60
2022-08-27T21:23:31.059Z,1.70
2022-08-27T21:26:04.169Z,1.30
2022-08-27T21:28:32.915Z,1.63
2022-08-27T21:31:00.143Z,1.60
2022-08-27T21:33:27.209Z,1.48
2022-08-27T21:35:54.372Z,1.50
2022-08-27T21:38:21.634Z,1.85
2022-08-27T21:40:48.725Z,1.55
2022-08-27T21:43:15.828Z,1.27
2022-08-27T21:45:43.143Z,2.00
2022-08-27T21:48:10.578Z,1.60
2022-08-27T21:50:37.866Z,1.30
2022-08-27T21:53:05.036Z,2.10
2022-08-27T21:55:33.424Z,1.65
2022-08-27T21:58:00.455Z,1.25
2022-08-27T22:00:29.990Z,1.60
2022-08-27T22:02:57.708Z,1.20
2022-08-27T22:05:24.924Z,1.27
2022-08-27T22:07:52.147Z,1.70
2022-08-27T22:10:19.637Z,1.50
2022-08-27T22:12:46.810Z,1.35
2022-08-27T22:15:14.141Z,1.70
2022-08-27T22:17:41.124Z,1.77
2022-08-27T22:20:11.094Z,1.63
2022-08-27T22:22:38.693Z,1.60
2022-08-27T22:25:06.602Z,1.60
2022-08-27T22:27:33.675Z,1.60
2022-08-27T22:30:01.037Z,2.10
2022-08-27T22:32:28.138Z,1.48
2022-08-27T22:34:55.168Z,2.03
2022-08-27T22:37:22.337Z,1.55
2022-08-27T22:39:49.526Z,1.55
2022-08-27T22:42:18.319Z,1.35
2022-08-27T22:44:45.569Z,1.58
2022-08-27T22:47:14.955Z,1.50
2022-08-27T22:49:43.350Z,1.55
2022-08-27T22:52:10.999Z,1.75
2022-08-27T22:54:38.324Z,1.63
2022-08-27T22:57:05.644Z,2.08
2022-08-27T22:59:38.439Z,1.95
2022-08-27T23:02:08.472Z,1.70
2022-08-27T23:04:54.627Z,1.80
2022-08-27T23:07:24.664Z,2.20
2022-08-27T23:09:51.899Z,1.95
2022-08-27T23:12:19.883Z,1.50
2022-08-27T23:14:46.973Z,1.65
2022-08-27T23:17:16.124Z,1.73
2022-08-27T23:19:43.846Z,1.70
2022-08-27T23:22:11.371Z,1.88
2022-08-27T23:25:04.044Z,1.70
2022-08-27T23:27:31.456Z,2.13
2022-08-27T23:30:01.955Z,2.13
2022-08-27T23:32:29.931Z,2.45
2022-08-27T23:34:57.511Z,2.00
2022-08-27T23:37:24.899Z,2.03
2022-08-27T23:39:51.931Z,2.22
2022-08-27T23:42:19.393Z,2.50
2022-08-27T23:44:48.877Z,2.45
2022-08-27T23:47:16.833Z,2.38
2022-08-27T23:49:44.028Z,2.65
2022-08-27T23:52:13.052Z,2.08
2022-08-27T23:54:40.337Z,2.17
2022-08-27T23:57:07.485Z,2.50
2022-08-27T23:59:35.604Z,2.60
